sensor_id;sensor_type;location;lat;lon;timestamp;P1;durP1;ratioP1;P2;durP2;ratioP2
54959;SDS011;40860;51.710;8.736;2024-01-30T00:01:57;13.02;;;10.10;;
54959;SDS011;40860;51.710;8.736;2024-01-30T00:06:01;14.73;;;10.65;;
54959;SDS011;40860;51.710;8.736;2024-01-30T00:10:06;12.77;;;10.20;;
54959;SDS011;40860;51.710;8.736;2024-01-30T00:14:09;15.02;;;10.70;;
54959;SDS011;40860;51.710;8.736;2024-01-30T00:18:12;14.57;;;10.73;;
54959;SDS011;40860;51.710;8.736;2024-01-30T00:22:16;14.07;;;9.98;;
54959;SDS011;40860;51.710;8.736;2024-01-30T00:26:19;17.90;;;10.50;;
54959;SDS011;40860;51.710;8.736;2024-01-30T00:30:21;15.73;;;11.15;;
54959;SDS011;40860;51.710;8.736;2024-01-30T00:34:25;15.02;;;10.60;;
54959;SDS011;40860;51.710;8.736;2024-01-30T00:38:29;14.35;;;10.10;;
54959;SDS011;40860;51.710;8.736;2024-01-30T00:42:32;14.05;;;10.00;;
54959;SDS011;40860;51.710;8.736;2024-01-30T00:46:35;14.57;;;10.90;;
54959;SDS011;40860;51.710;8.736;2024-01-30T00:50:38;16.00;;;10.68;;
54959;SDS011;40860;51.710;8.736;2024-01-30T00:54:42;17.63;;;10.40;;
54959;SDS011;40860;51.710;8.736;2024-01-30T00:58:45;13.07;;;9.88;;
54959;SDS011;40860;51.710;8.736;2024-01-30T01:02:48;15.23;;;10.95;;
54959;SDS011;40860;51.710;8.736;2024-01-30T01:06:51;13.88;;;9.35;;
54959;SDS011;40860;51.710;8.736;2024-01-30T01:10:55;14.05;;;9.82;;
54959;SDS011;40860;51.710;8.736;2024-01-30T01:14:58;13.73;;;9.68;;
54959;SDS011;40860;51.710;8.736;2024-01-30T01:19:01;13.20;;;9.60;;
54959;SDS011;40860;51.710;8.736;2024-01-30T01:23:05;14.20;;;9.93;;
54959;SDS011;40860;51.710;8.736;2024-01-30T01:27:09;16.08;;;9.98;;
54959;SDS011;40860;51.710;8.736;2024-01-30T01:31:12;14.25;;;9.60;;
54959;SDS011;40860;51.710;8.736;2024-01-30T01:35:15;13.38;;;9.75;;
54959;SDS011;40860;51.710;8.736;2024-01-30T01:39:18;12.18;;;9.75;;
54959;SDS011;40860;51.710;8.736;2024-01-30T01:43:22;15.50;;;10.10;;
54959;SDS011;40860;51.710;8.736;2024-01-30T01:47:25;13.88;;;9.82;;
54959;SDS011;40860;51.710;8.736;2024-01-30T01:51:28;12.52;;;9.50;;
54959;SDS011;40860;51.710;8.736;2024-01-30T01:55:33;14.48;;;10.18;;
54959;SDS011;40860;51.710;8.736;2024-01-30T01:59:38;13.65;;;10.18;;
54959;SDS011;40860;51.710;8.736;2024-01-30T02:03:41;18.40;;;11.00;;
54959;SDS011;40860;51.710;8.736;2024-01-30T02:07:44;14.88;;;10.68;;
54959;SDS011;40860;51.710;8.736;2024-01-30T02:11:47;15.48;;;10.43;;
54959;SDS011;40860;51.710;8.736;2024-01-30T02:15:51;14.82;;;9.93;;
54959;SDS011;40860;51.710;8.736;2024-01-30T02:19:54;15.45;;;9.85;;
54959;SDS011;40860;51.710;8.736;2024-01-30T02:23:58;12.55;;;10.10;;
54959;SDS011;40860;51.710;8.736;2024-01-30T02:28:03;13.18;;;9.40;;
54959;SDS011;40860;51.710;8.736;2024-01-30T02:32:06;14.10;;;9.63;;
54959;SDS011;40860;51.710;8.736;2024-01-30T02:36:09;12.73;;;9.82;;
54959;SDS011;40860;51.710;8.736;2024-01-30T02:40:13;14.48;;;9.90;;
54959;SDS011;40860;51.710;8.736;2024-01-30T02:44:17;12.48;;;8.68;;
54959;SDS011;40860;51.710;8.736;2024-01-30T02:48:20;13.80;;;9.48;;
54959;SDS011;40860;51.710;8.736;2024-01-30T02:52:22;14.50;;;9.35;;
54959;SDS011;40860;51.710;8.736;2024-01-30T02:56:27;10.98;;;9.05;;
54959;SDS011;40860;51.710;8.736;2024-01-30T03:00:29;14.07;;;10.13;;
54959;SDS011;40860;51.710;8.736;2024-01-30T03:04:32;12.35;;;9.35;;
54959;SDS011;40860;51.710;8.736;2024-01-30T03:08:35;12.38;;;8.85;;
54959;SDS011;40860;51.710;8.736;2024-01-30T03:12:40;13.73;;;9.88;;
54959;SDS011;40860;51.710;8.736;2024-01-30T03:16:42;15.77;;;9.85;;
54959;SDS011;40860;51.710;8.736;2024-01-30T03:20:45;13.70;;;9.50;;
54959;SDS011;40860;51.710;8.736;2024-01-30T03:24:48;13.90;;;9.80;;
54959;SDS011;40860;51.710;8.736;2024-01-30T03:28:52;12.63;;;9.40;;
54959;SDS011;40860;51.710;8.736;2024-01-30T03:32:55;15.98;;;8.95;;
54959;SDS011;40860;51.710;8.736;2024-01-30T03:36:58;10.98;;;8.20;;
54959;SDS011;40860;51.710;8.736;2024-01-30T03:41:00;13.07;;;8.82;;
54959;SDS011;40860;51.710;8.736;2024-01-30T03:45:05;15.43;;;9.32;;
54959;SDS011;40860;51.710;8.736;2024-01-30T03:49:09;11.77;;;8.30;;
54959;SDS011;40860;51.710;8.736;2024-01-30T03:53:12;10.48;;;8.15;;
54959;SDS011;40860;51.710;8.736;2024-01-30T03:57:15;12.55;;;8.10;;
54959;SDS011;40860;51.710;8.736;2024-01-30T04:01:19;10.73;;;7.90;;
54959;SDS011;40860;51.710;8.736;2024-01-30T04:05:22;11.68;;;7.65;;
54959;SDS011;40860;51.710;8.736;2024-01-30T04:09:25;12.70;;;7.63;;
54959;SDS011;40860;51.710;8.736;2024-01-30T04:13:30;12.85;;;8.05;;
54959;SDS011;40860;51.710;8.736;2024-01-30T04:17:34;12.27;;;7.68;;
54959;SDS011;40860;51.710;8.736;2024-01-30T04:21:37;13.60;;;7.60;;
54959;SDS011;40860;51.710;8.736;2024-01-30T04:25:40;10.73;;;7.55;;
54959;SDS011;40860;51.710;8.736;2024-01-30T04:29:43;11.30;;;7.57;;
54959;SDS011;40860;51.710;8.736;2024-01-30T04:33:47;9.48;;;7.00;;
54959;SDS011;40860;51.710;8.736;2024-01-30T04:37:51;11.35;;;7.13;;
54959;SDS011;40860;51.710;8.736;2024-01-30T04:41:54;12.18;;;7.60;;
54959;SDS011;40860;51.710;8.736;2024-01-30T04:45:59;9.80;;;7.10;;
54959;SDS011;40860;51.710;8.736;2024-01-30T04:50:03;11.02;;;7.63;;
54959;SDS011;40860;51.710;8.736;2024-01-30T04:54:07;8.32;;;7.15;;
54959;SDS011;40860;51.710;8.736;2024-01-30T04:58:10;10.43;;;7.38;;
54959;SDS011;40860;51.710;8.736;2024-01-30T05:02:12;9.48;;;7.38;;
54959;SDS011;40860;51.710;8.736;2024-01-30T05:06:24;12.35;;;7.35;;
54959;SDS011;40860;51.710;8.736;2024-01-30T05:10:28;12.88;;;7.22;;
54959;SDS011;40860;51.710;8.736;2024-01-30T05:14:31;10.18;;;7.30;;
54959;SDS011;40860;51.710;8.736;2024-01-30T05:18:34;12.10;;;7.03;;
54959;SDS011;40860;51.710;8.736;2024-01-30T05:22:38;8.52;;;6.55;;
54959;SDS011;40860;51.710;8.736;2024-01-30T05:26:46;9.10;;;7.28;;
54959;SDS011;40860;51.710;8.736;2024-01-30T05:30:49;7.95;;;6.78;;
54959;SDS011;40860;51.710;8.736;2024-01-30T05:34:52;8.52;;;6.72;;
54959;SDS011;40860;51.710;8.736;2024-01-30T05:38:56;9.57;;;6.75;;
54959;SDS011;40860;51.710;8.736;2024-01-30T05:42:59;10.25;;;6.90;;
54959;SDS011;40860;51.710;8.736;2024-01-30T05:47:04;9.05;;;7.28;;
54959;SDS011;40860;51.710;8.736;2024-01-30T05:51:07;10.15;;;7.00;;
54959;SDS011;40860;51.710;8.736;2024-01-30T05:55:12;9.18;;;6.35;;
54959;SDS011;40860;51.710;8.736;2024-01-30T05:59:15;9.27;;;6.60;;
54959;SDS011;40860;51.710;8.736;2024-01-30T06:03:18;8.73;;;6.80;;
54959;SDS011;40860;51.710;8.736;2024-01-30T06:07:21;9.27;;;6.55;;
54959;SDS011;40860;51.710;8.736;2024-01-30T06:11:25;7.15;;;6.45;;
54959;SDS011;40860;51.710;8.736;2024-01-30T06:15:28;9.35;;;7.10;;
54959;SDS011;40860;51.710;8.736;2024-01-30T06:19:31;8.63;;;6.28;;
54959;SDS011;40860;51.710;8.736;2024-01-30T06:23:34;9.80;;;6.65;;
54959;SDS011;40860;51.710;8.736;2024-01-30T06:27:38;10.35;;;6.32;;
54959;SDS011;40860;51.710;8.736;2024-01-30T06:31:42;9.50;;;6.35;;
54959;SDS011;40860;51.710;8.736;2024-01-30T06:35:45;10.68;;;7.05;;
54959;SDS011;40860;51.710;8.736;2024-01-30T06:39:48;7.97;;;6.68;;
54959;SDS011;40860;51.710;8.736;2024-01-30T06:43:58;7.28;;;6.20;;
54959;SDS011;40860;51.710;8.736;2024-01-30T06:48:01;8.43;;;5.90;;
54959;SDS011;40860;51.710;8.736;2024-01-30T06:52:04;6.95;;;6.15;;
54959;SDS011;40860;51.710;8.736;2024-01-30T06:56:07;12.20;;;6.88;;
54959;SDS011;40860;51.710;8.736;2024-01-30T07:00:15;13.07;;;7.00;;
54959;SDS011;40860;51.710;8.736;2024-01-30T07:04:20;8.65;;;6.78;;
54959;SDS011;40860;51.710;8.736;2024-01-30T07:08:23;10.20;;;6.32;;
54959;SDS011;40860;51.710;8.736;2024-01-30T07:12:26;7.28;;;6.00;;
54959;SDS011;40860;51.710;8.736;2024-01-30T07:16:30;8.65;;;5.53;;
54959;SDS011;40860;51.710;8.736;2024-01-30T07:20:33;7.05;;;5.47;;
54959;SDS011;40860;51.710;8.736;2024-01-30T07:24:41;6.55;;;5.57;;
54959;SDS011;40860;51.710;8.736;2024-01-30T07:28:46;6.85;;;5.30;;
54959;SDS011;40860;51.710;8.736;2024-01-30T07:32:50;8.80;;;5.38;;
54959;SDS011;40860;51.710;8.736;2024-01-30T07:36:53;7.13;;;5.80;;
54959;SDS011;40860;51.710;8.736;2024-01-30T07:40:56;8.25;;;6.10;;
54959;SDS011;40860;51.710;8.736;2024-01-30T07:44:59;6.93;;;5.57;;
54959;SDS011;40860;51.710;8.736;2024-01-30T07:49:04;7.75;;;5.70;;
54959;SDS011;40860;51.710;8.736;2024-01-30T07:53:07;8.00;;;6.28;;
54959;SDS011;40860;51.710;8.736;2024-01-30T07:57:10;7.97;;;6.05;;
54959;SDS011;40860;51.710;8.736;2024-01-30T08:01:14;7.45;;;5.25;;
54959;SDS011;40860;51.710;8.736;2024-01-30T08:05:18;9.23;;;5.82;;
54959;SDS011;40860;51.710;8.736;2024-01-30T08:09:23;7.68;;;6.13;;
54959;SDS011;40860;51.710;8.736;2024-01-30T08:13:27;13.50;;;6.38;;
54959;SDS011;40860;51.710;8.736;2024-01-30T08:17:30;10.23;;;5.95;;
54959;SDS011;40860;51.710;8.736;2024-01-30T08:21:34;10.48;;;5.95;;
54959;SDS011;40860;51.710;8.736;2024-01-30T08:25:40;9.13;;;6.15;;
54959;SDS011;40860;51.710;8.736;2024-01-30T08:29:43;6.57;;;5.32;;
54959;SDS011;40860;51.710;8.736;2024-01-30T08:33:45;7.00;;;5.15;;
54959;SDS011;40860;51.710;8.736;2024-01-30T08:37:52;7.40;;;5.50;;
54959;SDS011;40860;51.710;8.736;2024-01-30T08:41:55;7.88;;;5.47;;
54959;SDS011;40860;51.710;8.736;2024-01-30T08:45:58;7.93;;;5.82;;
54959;SDS011;40860;51.710;8.736;2024-01-30T08:50:02;7.72;;;5.90;;
54959;SDS011;40860;51.710;8.736;2024-01-30T08:54:06;7.00;;;5.78;;
54959;SDS011;40860;51.710;8.736;2024-01-30T08:58:09;8.30;;;6.22;;
54959;SDS011;40860;51.710;8.736;2024-01-30T09:02:12;7.28;;;6.10;;
54959;SDS011;40860;51.710;8.736;2024-01-30T09:06:17;6.68;;;5.80;;
54959;SDS011;40860;51.710;8.736;2024-01-30T09:10:22;9.50;;;6.40;;
54959;SDS011;40860;51.710;8.736;2024-01-30T09:14:25;9.75;;;6.45;;
54959;SDS011;40860;51.710;8.736;2024-01-30T09:18:28;8.18;;;6.20;;
54959;SDS011;40860;51.710;8.736;2024-01-30T09:22:31;7.72;;;6.05;;
54959;SDS011;40860;51.710;8.736;2024-01-30T09:26:38;9.23;;;6.25;;
54959;SDS011;40860;51.710;8.736;2024-01-30T09:30:41;8.00;;;5.85;;
54959;SDS011;40860;51.710;8.736;2024-01-30T09:34:44;6.85;;;5.75;;
54959;SDS011;40860;51.710;8.736;2024-01-30T09:38:47;9.30;;;5.93;;
54959;SDS011;40860;51.710;8.736;2024-01-30T09:42:51;7.68;;;5.90;;
54959;SDS011;40860;51.710;8.736;2024-01-30T09:46:55;6.88;;;5.88;;
54959;SDS011;40860;51.710;8.736;2024-01-30T09:50:59;8.95;;;6.63;;
54959;SDS011;40860;51.710;8.736;2024-01-30T09:55:03;8.52;;;6.70;;
54959;SDS011;40860;51.710;8.736;2024-01-30T09:59:08;7.40;;;6.22;;
54959;SDS011;40860;51.710;8.736;2024-01-30T10:03:10;9.63;;;6.97;;
54959;SDS011;40860;51.710;8.736;2024-01-30T10:07:16;9.07;;;6.93;;
54959;SDS011;40860;51.710;8.736;2024-01-30T10:11:19;7.95;;;6.38;;
54959;SDS011;40860;51.710;8.736;2024-01-30T10:15:23;10.18;;;6.68;;
54959;SDS011;40860;51.710;8.736;2024-01-30T10:19:27;9.50;;;6.65;;
54959;SDS011;40860;51.710;8.736;2024-01-30T10:23:30;8.45;;;6.25;;
54959;SDS011;40860;51.710;8.736;2024-01-30T10:27:36;8.10;;;6.55;;
54959;SDS011;40860;51.710;8.736;2024-01-30T10:31:40;7.63;;;6.72;;
54959;SDS011;40860;51.710;8.736;2024-01-30T10:35:43;9.77;;;7.03;;
54959;SDS011;40860;51.710;8.736;2024-01-30T10:39:46;9.88;;;7.25;;
54959;SDS011;40860;51.710;8.736;2024-01-30T10:43:50;9.07;;;6.97;;
54959;SDS011;40860;51.710;8.736;2024-01-30T10:48:06;7.65;;;6.85;;
54959;SDS011;40860;51.710;8.736;2024-01-30T10:52:11;9.20;;;6.45;;
54959;SDS011;40860;51.710;8.736;2024-01-30T10:56:18;7.63;;;6.60;;
54959;SDS011;40860;51.710;8.736;2024-01-30T11:00:24;11.05;;;7.28;;
54959;SDS011;40860;51.710;8.736;2024-01-30T11:04:30;8.50;;;6.75;;
54959;SDS011;40860;51.710;8.736;2024-01-30T11:08:38;9.32;;;6.45;;
54959;SDS011;40860;51.710;8.736;2024-01-30T11:12:41;8.88;;;5.65;;
54959;SDS011;40860;51.710;8.736;2024-01-30T11:16:46;7.82;;;6.50;;
54959;SDS011;40860;51.710;8.736;2024-01-30T11:20:50;7.70;;;6.10;;
54959;SDS011;40860;51.710;8.736;2024-01-30T11:24:54;7.38;;;5.93;;
54959;SDS011;40860;51.710;8.736;2024-01-30T11:28:59;7.10;;;6.00;;
54959;SDS011;40860;51.710;8.736;2024-01-30T11:33:06;7.53;;;6.13;;
54959;SDS011;40860;51.710;8.736;2024-01-30T11:37:11;6.90;;;5.30;;
54959;SDS011;40860;51.710;8.736;2024-01-30T11:41:17;7.30;;;5.47;;
54959;SDS011;40860;51.710;8.736;2024-01-30T11:45:20;8.48;;;5.70;;
54959;SDS011;40860;51.710;8.736;2024-01-30T11:49:23;6.80;;;5.13;;
54959;SDS011;40860;51.710;8.736;2024-01-30T11:53:28;6.00;;;5.32;;
54959;SDS011;40860;51.710;8.736;2024-01-30T11:57:30;8.25;;;5.75;;
54959;SDS011;40860;51.710;8.736;2024-01-30T12:01:33;7.15;;;5.30;;
54959;SDS011;40860;51.710;8.736;2024-01-30T12:05:36;9.05;;;5.82;;
54959;SDS011;40860;51.710;8.736;2024-01-30T12:09:53;8.65;;;6.10;;
54959;SDS011;40860;51.710;8.736;2024-01-30T12:13:59;7.10;;;6.05;;
54959;SDS011;40860;51.710;8.736;2024-01-30T12:18:05;11.77;;;6.03;;
54959;SDS011;40860;51.710;8.736;2024-01-30T12:22:10;9.98;;;5.90;;
54959;SDS011;40860;51.710;8.736;2024-01-30T12:26:14;7.05;;;6.30;;
54959;SDS011;40860;51.710;8.736;2024-01-30T12:30:18;8.68;;;5.97;;
54959;SDS011;40860;51.710;8.736;2024-01-30T12:34:24;7.60;;;4.75;;
54959;SDS011;40860;51.710;8.736;2024-01-30T12:38:27;5.85;;;4.03;;
54959;SDS011;40860;51.710;8.736;2024-01-30T12:42:31;5.05;;;4.50;;
54959;SDS011;40860;51.710;8.736;2024-01-30T12:46:34;6.15;;;4.07;;
54959;SDS011;40860;51.710;8.736;2024-01-30T12:50:37;8.70;;;4.50;;
54959;SDS011;40860;51.710;8.736;2024-01-30T12:54:40;7.55;;;4.60;;
54959;SDS011;40860;51.710;8.736;2024-01-30T12:58:45;7.65;;;4.82;;
54959;SDS011;40860;51.710;8.736;2024-01-30T13:02:52;9.50;;;4.47;;
54959;SDS011;40860;51.710;8.736;2024-01-30T13:06:55;7.07;;;4.88;;
54959;SDS011;40860;51.710;8.736;2024-01-30T13:10:59;7.50;;;4.95;;
54959;SDS011;40860;51.710;8.736;2024-01-30T13:15:04;7.50;;;4.80;;
54959;SDS011;40860;51.710;8.736;2024-01-30T13:19:07;8.15;;;4.82;;
54959;SDS011;40860;51.710;8.736;2024-01-30T13:23:10;7.80;;;4.60;;
54959;SDS011;40860;51.710;8.736;2024-01-30T13:27:13;8.55;;;4.90;;
54959;SDS011;40860;51.710;8.736;2024-01-30T13:31:17;8.88;;;4.93;;
54959;SDS011;40860;51.710;8.736;2024-01-30T13:35:22;6.35;;;4.20;;
54959;SDS011;40860;51.710;8.736;2024-01-30T13:39:25;6.30;;;4.60;;
54959;SDS011;40860;51.710;8.736;2024-01-30T13:43:34;10.13;;;4.85;;
54959;SDS011;40860;51.710;8.736;2024-01-30T13:47:38;8.70;;;5.10;;
54959;SDS011;40860;51.710;8.736;2024-01-30T13:51:41;10.00;;;5.30;;
54959;SDS011;40860;51.710;8.736;2024-01-30T13:55:44;9.68;;;4.97;;
54959;SDS011;40860;51.710;8.736;2024-01-30T13:59:47;11.98;;;6.35;;
54959;SDS011;40860;51.710;8.736;2024-01-30T14:03:51;6.38;;;5.70;;
54959;SDS011;40860;51.710;8.736;2024-01-30T14:07:54;7.95;;;6.15;;
54959;SDS011;40860;51.710;8.736;2024-01-30T14:11:57;8.77;;;5.45;;
54959;SDS011;40860;51.710;8.736;2024-01-30T14:16:00;10.93;;;5.63;;
54959;SDS011;40860;51.710;8.736;2024-01-30T14:20:07;10.68;;;5.55;;
54959;SDS011;40860;51.710;8.736;2024-01-30T14:24:12;9.63;;;5.90;;
54959;SDS011;40860;51.710;8.736;2024-01-30T14:28:14;8.93;;;5.78;;
54959;SDS011;40860;51.710;8.736;2024-01-30T14:32:17;7.53;;;5.63;;
54959;SDS011;40860;51.710;8.736;2024-01-30T14:36:26;7.75;;;5.60;;
54959;SDS011;40860;51.710;8.736;2024-01-30T14:40:29;10.48;;;6.22;;
54959;SDS011;40860;51.710;8.736;2024-01-30T14:44:32;10.43;;;6.15;;
54959;SDS011;40860;51.710;8.736;2024-01-30T14:48:35;10.75;;;6.22;;
54959;SDS011;40860;51.710;8.736;2024-01-30T14:52:40;11.43;;;6.97;;
54959;SDS011;40860;51.710;8.736;2024-01-30T14:56:44;15.77;;;7.40;;
54959;SDS011;40860;51.710;8.736;2024-01-30T15:00:47;12.57;;;7.38;;
54959;SDS011;40860;51.710;8.736;2024-01-30T15:04:50;12.88;;;7.28;;
54959;SDS011;40860;51.710;8.736;2024-01-30T15:08:54;13.07;;;7.25;;
54959;SDS011;40860;51.710;8.736;2024-01-30T15:12:59;17.42;;;7.57;;
54959;SDS011;40860;51.710;8.736;2024-01-30T15:17:02;11.98;;;7.15;;
54959;SDS011;40860;51.710;8.736;2024-01-30T15:21:05;12.80;;;6.68;;
54959;SDS011;40860;51.710;8.736;2024-01-30T15:25:09;11.50;;;7.15;;
54959;SDS011;40860;51.710;8.736;2024-01-30T15:29:12;10.80;;;6.72;;
54959;SDS011;40860;51.710;8.736;2024-01-30T15:33:15;9.77;;;6.40;;
54959;SDS011;40860;51.710;8.736;2024-01-30T15:37:18;11.80;;;6.72;;
54959;SDS011;40860;51.710;8.736;2024-01-30T15:41:23;11.75;;;6.43;;
54959;SDS011;40860;51.710;8.736;2024-01-30T15:45:26;15.30;;;6.22;;
54959;SDS011;40860;51.710;8.736;2024-01-30T15:49:32;10.50;;;6.53;;
54959;SDS011;40860;51.710;8.736;2024-01-30T15:53:35;10.98;;;6.53;;
54959;SDS011;40860;51.710;8.736;2024-01-30T15:57:39;11.82;;;6.18;;
54959;SDS011;40860;51.710;8.736;2024-01-30T16:01:42;11.43;;;6.40;;
54959;SDS011;40860;51.710;8.736;2024-01-30T16:05:49;8.52;;;6.43;;
54959;SDS011;40860;51.710;8.736;2024-01-30T16:09:52;10.90;;;7.28;;
54959;SDS011;40860;51.710;8.736;2024-01-30T16:13:56;9.23;;;7.32;;
54959;SDS011;40860;51.710;8.736;2024-01-30T16:18:00;10.65;;;7.25;;
54959;SDS011;40860;51.710;8.736;2024-01-30T16:22:03;10.05;;;7.50;;
54959;SDS011;40860;51.710;8.736;2024-01-30T16:26:06;10.63;;;7.88;;
54959;SDS011;40860;51.710;8.736;2024-01-30T16:30:11;10.70;;;7.82;;
54959;SDS011;40860;51.710;8.736;2024-01-30T16:34:15;10.25;;;7.97;;
54959;SDS011;40860;51.710;8.736;2024-01-30T16:38:18;13.75;;;8.07;;
54959;SDS011;40860;51.710;8.736;2024-01-30T16:42:21;11.13;;;7.72;;
54959;SDS011;40860;51.710;8.736;2024-01-30T16:46:25;12.40;;;8.55;;
54959;SDS011;40860;51.710;8.736;2024-01-30T16:50:31;12.82;;;9.40;;
54959;SDS011;40860;51.710;8.736;2024-01-30T16:54:33;14.30;;;9.43;;
54959;SDS011;40860;51.710;8.736;2024-01-30T16:58:36;14.57;;;9.40;;
54959;SDS011;40860;51.710;8.736;2024-01-30T17:02:40;12.80;;;10.73;;
54959;SDS011;40860;51.710;8.736;2024-01-30T17:06:43;13.63;;;9.85;;
54959;SDS011;40860;51.710;8.736;2024-01-30T17:10:48;14.82;;;10.63;;
54959;SDS011;40860;51.710;8.736;2024-01-30T17:14:51;14.05;;;10.63;;
54959;SDS011;40860;51.710;8.736;2024-01-30T17:18:55;13.93;;;9.98;;
54959;SDS011;40860;51.710;8.736;2024-01-30T17:22:59;16.50;;;10.23;;
54959;SDS011;40860;51.710;8.736;2024-01-30T17:27:02;13.35;;;9.88;;
54959;SDS011;40860;51.710;8.736;2024-01-30T17:31:05;13.65;;;9.82;;
54959;SDS011;40860;51.710;8.736;2024-01-30T17:35:10;13.18;;;8.95;;
54959;SDS011;40860;51.710;8.736;2024-01-30T17:39:13;13.45;;;9.90;;
54959;SDS011;40860;51.710;8.736;2024-01-30T17:43:16;10.70;;;8.32;;
54959;SDS011;40860;51.710;8.736;2024-01-30T17:47:20;11.57;;;8.38;;
54959;SDS011;40860;51.710;8.736;2024-01-30T17:51:24;14.48;;;8.48;;
54959;SDS011;40860;51.710;8.736;2024-01-30T17:55:27;11.27;;;8.45;;
54959;SDS011;40860;51.710;8.736;2024-01-30T17:59:30;16.33;;;9.43;;
54959;SDS011;40860;51.710;8.736;2024-01-30T18:03:33;10.60;;;9.05;;
54959;SDS011;40860;51.710;8.736;2024-01-30T18:07:39;10.20;;;8.27;;
54959;SDS011;40860;51.710;8.736;2024-01-30T18:11:45;9.10;;;6.82;;
54959;SDS011;40860;51.710;8.736;2024-01-30T18:15:48;7.35;;;5.45;;
54959;SDS011;40860;51.710;8.736;2024-01-30T18:19:51;9.45;;;5.00;;
54959;SDS011;40860;51.710;8.736;2024-01-30T18:23:55;6.00;;;4.63;;
54959;SDS011;40860;51.710;8.736;2024-01-30T18:27:58;6.50;;;4.28;;
54959;SDS011;40860;51.710;8.736;2024-01-30T18:32:02;6.07;;;3.85;;
54959;SDS011;40860;51.710;8.736;2024-01-30T18:36:06;4.75;;;3.22;;
54959;SDS011;40860;51.710;8.736;2024-01-30T18:40:11;4.00;;;2.53;;
54959;SDS011;40860;51.710;8.736;2024-01-30T18:44:17;5.72;;;3.20;;
54959;SDS011;40860;51.710;8.736;2024-01-30T18:48:20;5.03;;;2.67;;
54959;SDS011;40860;51.710;8.736;2024-01-30T18:52:23;4.97;;;2.95;;
54959;SDS011;40860;51.710;8.736;2024-01-30T18:56:27;3.85;;;2.22;;
54959;SDS011;40860;51.710;8.736;2024-01-30T19:00:30;2.58;;;2.25;;
54959;SDS011;40860;51.710;8.736;2024-01-30T19:04:33;2.33;;;2.13;;
54959;SDS011;40860;51.710;8.736;2024-01-30T19:08:36;2.10;;;1.90;;
54959;SDS011;40860;51.710;8.736;2024-01-30T19:12:40;3.47;;;1.85;;
54959;SDS011;40860;51.710;8.736;2024-01-30T19:16:49;3.15;;;2.15;;
54959;SDS011;40860;51.710;8.736;2024-01-30T19:20:52;5.82;;;2.45;;
54959;SDS011;40860;51.710;8.736;2024-01-30T19:24:55;5.45;;;2.70;;
54959;SDS011;40860;51.710;8.736;2024-01-30T19:28:59;3.33;;;2.35;;
54959;SDS011;40860;51.710;8.736;2024-01-30T19:33:02;4.28;;;2.38;;
54959;SDS011;40860;51.710;8.736;2024-01-30T19:37:05;3.78;;;2.22;;
54959;SDS011;40860;51.710;8.736;2024-01-30T19:41:10;3.00;;;2.15;;
54959;SDS011;40860;51.710;8.736;2024-01-30T19:45:15;5.20;;;2.83;;
54959;SDS011;40860;51.710;8.736;2024-01-30T19:49:18;4.35;;;2.60;;
54959;SDS011;40860;51.710;8.736;2024-01-30T19:53:21;3.38;;;3.00;;
54959;SDS011;40860;51.710;8.736;2024-01-30T19:57:24;5.70;;;3.70;;
54959;SDS011;40860;51.710;8.736;2024-01-30T20:01:28;5.07;;;3.70;;
54959;SDS011;40860;51.710;8.736;2024-01-30T20:05:31;5.40;;;4.38;;
54959;SDS011;40860;51.710;8.736;2024-01-30T20:09:34;7.60;;;5.05;;
54959;SDS011;40860;51.710;8.736;2024-01-30T20:13:37;7.70;;;6.50;;
54959;SDS011;40860;51.710;8.736;2024-01-30T20:17:43;11.68;;;7.95;;
54959;SDS011;40860;51.710;8.736;2024-01-30T20:21:46;10.73;;;8.73;;
54959;SDS011;40860;51.710;8.736;2024-01-30T20:25:50;11.68;;;9.20;;
54959;SDS011;40860;51.710;8.736;2024-01-30T20:29:52;10.90;;;9.60;;
54959;SDS011;40860;51.710;8.736;2024-01-30T20:33:57;10.65;;;9.52;;
54959;SDS011;40860;51.710;8.736;2024-01-30T20:38:00;11.82;;;9.60;;
54959;SDS011;40860;51.710;8.736;2024-01-30T20:42:03;11.82;;;9.63;;
54959;SDS011;40860;51.710;8.736;2024-01-30T20:46:07;10.77;;;9.63;;
54959;SDS011;40860;51.710;8.736;2024-01-30T20:50:14;12.65;;;9.82;;
54959;SDS011;40860;51.710;8.736;2024-01-30T20:54:17;14.35;;;9.93;;
54959;SDS011;40860;51.710;8.736;2024-01-30T20:58:19;11.75;;;9.77;;
54959;SDS011;40860;51.710;8.736;2024-01-30T21:02:23;11.27;;;8.75;;
54959;SDS011;40860;51.710;8.736;2024-01-30T21:06:28;12.65;;;8.18;;
54959;SDS011;40860;51.710;8.736;2024-01-30T21:10:31;9.15;;;7.80;;
54959;SDS011;40860;51.710;8.736;2024-01-30T21:14:34;9.65;;;7.28;;
54959;SDS011;40860;51.710;8.736;2024-01-30T21:18:38;10.23;;;7.05;;
54959;SDS011;40860;51.710;8.736;2024-01-30T21:22:45;10.90;;;7.53;;
54959;SDS011;40860;51.710;8.736;2024-01-30T21:26:48;12.35;;;7.20;;
54959;SDS011;40860;51.710;8.736;2024-01-30T21:30:50;8.25;;;6.68;;
54959;SDS011;40860;51.710;8.736;2024-01-30T21:34:53;7.85;;;7.05;;
54959;SDS011;40860;51.710;8.736;2024-01-30T21:38:57;13.20;;;7.50;;
54959;SDS011;40860;51.710;8.736;2024-01-30T21:43:01;10.13;;;7.57;;
54959;SDS011;40860;51.710;8.736;2024-01-30T21:47:04;9.25;;;7.20;;
54959;SDS011;40860;51.710;8.736;2024-01-30T21:51:06;9.82;;;7.43;;
54959;SDS011;40860;51.710;8.736;2024-01-30T21:55:10;9.40;;;8.05;;
54959;SDS011;40860;51.710;8.736;2024-01-30T21:59:13;9.38;;;8.07;;
54959;SDS011;40860;51.710;8.736;2024-01-30T22:03:16;10.45;;;8.43;;
54959;SDS011;40860;51.710;8.736;2024-01-30T22:07:19;10.98;;;7.75;;
54959;SDS011;40860;51.710;8.736;2024-01-30T22:11:24;11.00;;;7.90;;
54959;SDS011;40860;51.710;8.736;2024-01-30T22:15:27;11.35;;;8.75;;
54959;SDS011;40860;51.710;8.736;2024-01-30T22:19:30;11.82;;;8.70;;
54959;SDS011;40860;51.710;8.736;2024-01-30T22:23:33;12.25;;;8.32;;
54959;SDS011;40860;51.710;8.736;2024-01-30T22:27:37;12.50;;;7.65;;
54959;SDS011;40860;51.710;8.736;2024-01-30T22:31:42;10.70;;;8.38;;
54959;SDS011;40860;51.710;8.736;2024-01-30T22:35:45;11.68;;;7.78;;
54959;SDS011;40860;51.710;8.736;2024-01-30T22:39:48;9.45;;;6.65;;
54959;SDS011;40860;51.710;8.736;2024-01-30T22:43:52;12.75;;;7.75;;
54959;SDS011;40860;51.710;8.736;2024-01-30T22:47:55;8.98;;;7.40;;
54959;SDS011;40860;51.710;8.736;2024-01-30T22:51:58;10.77;;;8.82;;
54959;SDS011;40860;51.710;8.736;2024-01-30T22:56:01;11.32;;;9.15;;
54959;SDS011;40860;51.710;8.736;2024-01-30T23:00:06;13.40;;;9.57;;
54959;SDS011;40860;51.710;8.736;2024-01-30T23:04:12;15.95;;;11.80;;
54959;SDS011;40860;51.710;8.736;2024-01-30T23:08:15;14.70;;;12.55;;
54959;SDS011;40860;51.710;8.736;2024-01-30T23:12:18;18.27;;;13.82;;
54959;SDS011;40860;51.710;8.736;2024-01-30T23:16:25;19.38;;;13.65;;
54959;SDS011;40860;51.710;8.736;2024-01-30T23:20:28;17.20;;;13.85;;
54959;SDS011;40860;51.710;8.736;2024-01-30T23:24:31;20.83;;;15.57;;
54959;SDS011;40860;51.710;8.736;2024-01-30T23:28:34;17.80;;;14.65;;
54959;SDS011;40860;51.710;8.736;2024-01-30T23:32:38;21.10;;;15.70;;
54959;SDS011;40860;51.710;8.736;2024-01-30T23:36:43;20.42;;;14.93;;
54959;SDS011;40860;51.710;8.736;2024-01-30T23:40:48;21.30;;;15.27;;
54959;SDS011;40860;51.710;8.736;2024-01-30T23:44:51;18.42;;;15.13;;
54959;SDS011;40860;51.710;8.736;2024-01-30T23:48:56;20.92;;;15.82;;
54959;SDS011;40860;51.710;8.736;2024-01-30T23:52:59;21.05;;;16.17;;
54959;SDS011;40860;51.710;8.736;2024-01-30T23:57:02;22.60;;;16.45;;
